sensor_id;sensor_type;location;lat;lon;timestamp;pressure;altitude;pressure_sealevel;temperature;humidity
30708;BME280;17458;48.958;8.284;2023-04-08T00:00:49;100753.25;;;12.45;74.07
30708;BME280;17458;48.958;8.284;2023-04-08T00:03:33;100749.59;;;12.43;73.73
30708;BME280;17458;48.958;8.284;2023-04-08T00:06:18;100750.19;;;12.55;73.61
30708;BME280;17458;48.958;8.284;2023-04-08T00:09:04;100755.66;;;12.58;73.44
30708;BME280;17458;48.958;8.284;2023-04-08T00:11:49;100763.66;;;12.58;73.74
30708;BME280;17458;48.958;8.284;2023-04-08T00:14:36;100754.31;;;12.49;73.90
30708;BME280;17458;48.958;8.284;2023-04-08T00:17:21;100760.91;;;12.57;73.55
30708;BME280;17458;48.958;8.284;2023-04-08T00:20:08;100757.63;;;12.62;73.41
30708;BME280;17458;48.958;8.284;2023-04-08T00:22:53;100773.41;;;12.40;74.22
30708;BME280;17458;48.958;8.284;2023-04-08T00:25:37;100766.03;;;12.34;74.45
30708;BME280;17458;48.958;8.284;2023-04-08T00:28:21;100762.97;;;12.45;73.69
30708;BME280;17458;48.958;8.284;2023-04-08T00:31:06;100766.66;;;12.66;73.28
30708;BME280;17458;48.958;8.284;2023-04-08T00:33:50;100761.25;;;12.64;73.41
30708;BME280;17458;48.958;8.284;2023-04-08T00:36:35;100759.75;;;12.69;72.85
30708;BME280;17458;48.958;8.284;2023-04-08T00:39:19;100759.81;;;12.71;73.30
30708;BME280;17458;48.958;8.284;2023-04-08T00:42:03;100757.84;;;12.67;72.82
30708;BME280;17458;48.958;8.284;2023-04-08T00:44:50;100759.66;;;12.68;72.81
30708;BME280;17458;48.958;8.284;2023-04-08T00:47:35;100763.00;;;12.64;73.00
30708;BME280;17458;48.958;8.284;2023-04-08T00:50:20;100762.09;;;12.63;73.30
30708;BME280;17458;48.958;8.284;2023-04-08T00:53:08;100768.91;;;12.57;73.56
30708;BME280;17458;48.958;8.284;2023-04-08T00:55:52;100765.00;;;12.68;73.22
30708;BME280;17458;48.958;8.284;2023-04-08T00:58:40;100772.00;;;12.66;73.55
30708;BME280;17458;48.958;8.284;2023-04-08T01:04:43;100758.22;;;12.74;73.34
30708;BME280;17458;48.958;8.284;2023-04-08T01:07:35;100769.72;;;12.73;72.94
30708;BME280;17458;48.958;8.284;2023-04-08T01:10:26;100777.00;;;12.77;72.79
30708;BME280;17458;48.958;8.284;2023-04-08T01:13:13;100768.03;;;12.75;72.97
30708;BME280;17458;48.958;8.284;2023-04-08T01:16:00;100775.31;;;12.79;73.04
30708;BME280;17458;48.958;8.284;2023-04-08T01:18:46;100780.34;;;12.91;72.69
30708;BME280;17458;48.958;8.284;2023-04-08T01:21:34;100769.78;;;12.75;73.21
30708;BME280;17458;48.958;8.284;2023-04-08T01:24:26;100771.66;;;12.77;73.21
30708;BME280;17458;48.958;8.284;2023-04-08T01:27:15;100769.50;;;12.69;73.56
30708;BME280;17458;48.958;8.284;2023-04-08T01:30:03;100770.63;;;12.74;73.12
30708;BME280;17458;48.958;8.284;2023-04-08T01:32:48;100772.38;;;12.73;73.06
30708;BME280;17458;48.958;8.284;2023-04-08T01:35:35;100776.72;;;12.71;73.13
30708;BME280;17458;48.958;8.284;2023-04-08T01:38:23;100770.47;;;12.71;73.17
30708;BME280;17458;48.958;8.284;2023-04-08T01:41:12;100765.56;;;12.80;73.27
30708;BME280;17458;48.958;8.284;2023-04-08T01:43:57;100771.91;;;12.82;73.22
30708;BME280;17458;48.958;8.284;2023-04-08T01:46:41;100763.47;;;12.73;73.14
30708;BME280;17458;48.958;8.284;2023-04-08T01:49:26;100758.41;;;12.79;73.18
30708;BME280;17458;48.958;8.284;2023-04-08T01:52:15;100759.41;;;12.81;72.99
30708;BME280;17458;48.958;8.284;2023-04-08T01:55:02;100761.50;;;12.69;73.09
30708;BME280;17458;48.958;8.284;2023-04-08T01:57:49;100757.22;;;12.92;72.63
30708;BME280;17458;48.958;8.284;2023-04-08T02:00:35;100760.53;;;12.86;72.57
30708;BME280;17458;48.958;8.284;2023-04-08T02:03:24;100761.69;;;12.91;72.21
30708;BME280;17458;48.958;8.284;2023-04-08T02:06:10;100755.84;;;13.00;71.76
30708;BME280;17458;48.958;8.284;2023-04-08T02:08:54;100760.69;;;12.89;72.28
30708;BME280;17458;48.958;8.284;2023-04-08T02:11:39;100762.72;;;12.75;73.01
30708;BME280;17458;48.958;8.284;2023-04-08T02:14:23;100769.22;;;12.82;72.50
30708;BME280;17458;48.958;8.284;2023-04-08T02:17:11;100762.16;;;12.83;72.79
30708;BME280;17458;48.958;8.284;2023-04-08T02:20:05;100761.41;;;12.67;73.53
30708;BME280;17458;48.958;8.284;2023-04-08T02:25:49;100771.88;;;12.63;73.34
30708;BME280;17458;48.958;8.284;2023-04-08T02:28:34;100775.38;;;12.62;73.16
30708;BME280;17458;48.958;8.284;2023-04-08T02:31:19;100770.41;;;12.69;72.96
30708;BME280;17458;48.958;8.284;2023-04-08T02:34:04;100770.03;;;12.62;73.39
30708;BME280;17458;48.958;8.284;2023-04-08T02:36:50;100776.34;;;12.64;73.08
30708;BME280;17458;48.958;8.284;2023-04-08T02:39:35;100769.34;;;12.66;73.34
30708;BME280;17458;48.958;8.284;2023-04-08T02:42:18;100765.81;;;12.67;73.10
30708;BME280;17458;48.958;8.284;2023-04-08T02:45:03;100766.75;;;12.67;73.25
30708;BME280;17458;48.958;8.284;2023-04-08T02:47:47;100762.34;;;12.68;72.91
30708;BME280;17458;48.958;8.284;2023-04-08T02:50:31;100761.56;;;12.70;72.81
30708;BME280;17458;48.958;8.284;2023-04-08T02:53:15;100759.50;;;12.65;73.30
30708;BME280;17458;48.958;8.284;2023-04-08T02:55:59;100763.81;;;12.61;73.35
30708;BME280;17458;48.958;8.284;2023-04-08T02:58:43;100763.25;;;12.68;73.24
30708;BME280;17458;48.958;8.284;2023-04-08T03:01:27;100762.81;;;12.59;72.98
30708;BME280;17458;48.958;8.284;2023-04-08T03:04:11;100769.97;;;12.60;73.25
30708;BME280;17458;48.958;8.284;2023-04-08T03:06:55;100768.75;;;12.54;73.29
30708;BME280;17458;48.958;8.284;2023-04-08T03:09:39;100769.56;;;12.53;73.78
30708;BME280;17458;48.958;8.284;2023-04-08T03:12:22;100773.88;;;12.49;73.33
30708;BME280;17458;48.958;8.284;2023-04-08T03:15:07;100763.50;;;12.55;73.41
30708;BME280;17458;48.958;8.284;2023-04-08T03:17:51;100758.47;;;12.61;73.01
30708;BME280;17458;48.958;8.284;2023-04-08T03:20:35;100770.34;;;12.50;73.45
30708;BME280;17458;48.958;8.284;2023-04-08T03:23:18;100766.41;;;12.60;73.06
30708;BME280;17458;48.958;8.284;2023-04-08T03:26:02;100773.16;;;12.53;73.46
30708;BME280;17458;48.958;8.284;2023-04-08T03:28:46;100762.81;;;12.59;73.62
30708;BME280;17458;48.958;8.284;2023-04-08T03:31:30;100771.56;;;12.57;73.50
30708;BME280;17458;48.958;8.284;2023-04-08T03:34:14;100773.41;;;12.58;72.93
30708;BME280;17458;48.958;8.284;2023-04-08T03:36:58;100778.56;;;12.55;73.09
30708;BME280;17458;48.958;8.284;2023-04-08T03:39:42;100777.50;;;12.51;73.25
30708;BME280;17458;48.958;8.284;2023-04-08T03:42:26;100776.53;;;12.49;73.33
30708;BME280;17458;48.958;8.284;2023-04-08T03:45:10;100786.47;;;12.53;73.43
30708;BME280;17458;48.958;8.284;2023-04-08T03:47:54;100777.19;;;12.10;74.91
30708;BME280;17458;48.958;8.284;2023-04-08T03:50:38;100774.56;;;12.45;73.80
30708;BME280;17458;48.958;8.284;2023-04-08T03:53:22;100771.50;;;12.37;73.21
30708;BME280;17458;48.958;8.284;2023-04-08T03:56:06;100777.38;;;12.30;73.80
30708;BME280;17458;48.958;8.284;2023-04-08T03:58:51;100778.22;;;12.29;73.76
30708;BME280;17458;48.958;8.284;2023-04-08T04:01:34;100780.63;;;12.42;73.67
30708;BME280;17458;48.958;8.284;2023-04-08T04:04:18;100778.81;;;12.41;73.27
30708;BME280;17458;48.958;8.284;2023-04-08T04:07:02;100777.38;;;12.48;72.76
30708;BME280;17458;48.958;8.284;2023-04-08T04:09:46;100780.78;;;12.46;72.99
30708;BME280;17458;48.958;8.284;2023-04-08T04:12:30;100784.22;;;12.43;73.04
30708;BME280;17458;48.958;8.284;2023-04-08T04:15:14;100779.13;;;12.48;72.48
30708;BME280;17458;48.958;8.284;2023-04-08T04:17:58;100772.47;;;12.39;72.77
30708;BME280;17458;48.958;8.284;2023-04-08T04:20:42;100779.34;;;12.34;72.75
30708;BME280;17458;48.958;8.284;2023-04-08T04:23:26;100771.97;;;12.29;73.11
30708;BME280;17458;48.958;8.284;2023-04-08T04:26:10;100780.00;;;11.95;73.80
30708;BME280;17458;48.958;8.284;2023-04-08T04:28:54;100781.00;;;12.15;73.72
30708;BME280;17458;48.958;8.284;2023-04-08T04:31:38;100781.59;;;12.09;73.46
30708;BME280;17458;48.958;8.284;2023-04-08T04:34:23;100789.50;;;12.07;73.92
30708;BME280;17458;48.958;8.284;2023-04-08T04:37:07;100784.97;;;12.05;74.04
30708;BME280;17458;48.958;8.284;2023-04-08T04:39:51;100779.25;;;11.97;74.45
30708;BME280;17458;48.958;8.284;2023-04-08T04:42:35;100783.34;;;12.08;74.15
30708;BME280;17458;48.958;8.284;2023-04-08T04:45:19;100787.75;;;12.08;74.14
30708;BME280;17458;48.958;8.284;2023-04-08T04:48:03;100795.16;;;12.14;73.94
30708;BME280;17458;48.958;8.284;2023-04-08T04:50:58;100795.00;;;12.28;73.90
30708;BME280;17458;48.958;8.284;2023-04-08T04:53:42;100797.34;;;12.22;74.12
30708;BME280;17458;48.958;8.284;2023-04-08T04:56:26;100801.09;;;12.26;73.75
30708;BME280;17458;48.958;8.284;2023-04-08T04:59:10;100806.41;;;12.26;73.93
30708;BME280;17458;48.958;8.284;2023-04-08T05:01:54;100803.84;;;12.27;73.91
30708;BME280;17458;48.958;8.284;2023-04-08T05:04:40;100812.91;;;12.31;73.72
30708;BME280;17458;48.958;8.284;2023-04-08T05:07:24;100801.19;;;12.27;73.72
30708;BME280;17458;48.958;8.284;2023-04-08T05:10:09;100803.91;;;12.29;73.44
30708;BME280;17458;48.958;8.284;2023-04-08T05:12:54;100806.59;;;12.29;73.72
30708;BME280;17458;48.958;8.284;2023-04-08T05:15:37;100806.81;;;12.33;73.48
30708;BME280;17458;48.958;8.284;2023-04-08T05:18:21;100814.50;;;12.45;73.04
30708;BME280;17458;48.958;8.284;2023-04-08T05:21:05;100816.00;;;12.40;73.07
30708;BME280;17458;48.958;8.284;2023-04-08T05:23:49;100827.81;;;12.45;72.90
30708;BME280;17458;48.958;8.284;2023-04-08T05:26:36;100822.09;;;12.55;72.73
30708;BME280;17458;48.958;8.284;2023-04-08T05:29:20;100823.94;;;12.56;72.88
30708;BME280;17458;48.958;8.284;2023-04-08T05:32:04;100816.78;;;12.73;72.45
30708;BME280;17458;48.958;8.284;2023-04-08T05:34:49;100826.53;;;12.72;72.49
30708;BME280;17458;48.958;8.284;2023-04-08T05:37:33;100834.78;;;12.78;72.18
30708;BME280;17458;48.958;8.284;2023-04-08T05:40:17;100833.69;;;12.73;72.08
30708;BME280;17458;48.958;8.284;2023-04-08T05:43:01;100841.13;;;12.81;72.02
30708;BME280;17458;48.958;8.284;2023-04-08T05:45:45;100837.00;;;12.87;72.08
30708;BME280;17458;48.958;8.284;2023-04-08T05:48:29;100833.66;;;12.91;72.05
30708;BME280;17458;48.958;8.284;2023-04-08T05:51:14;100837.44;;;12.96;72.03
30708;BME280;17458;48.958;8.284;2023-04-08T05:53:58;100849.19;;;13.18;71.25
30708;BME280;17458;48.958;8.284;2023-04-08T05:56:42;100849.09;;;13.16;71.28
30708;BME280;17458;48.958;8.284;2023-04-08T05:59:29;100856.09;;;12.96;71.45
30708;BME280;17458;48.958;8.284;2023-04-08T06:02:13;100849.81;;;13.13;71.41
30708;BME280;17458;48.958;8.284;2023-04-08T06:04:58;100849.91;;;13.33;71.09
30708;BME280;17458;48.958;8.284;2023-04-08T06:07:42;100848.47;;;13.22;71.10
30708;BME280;17458;48.958;8.284;2023-04-08T06:10:26;100855.34;;;13.17;71.19
30708;BME280;17458;48.958;8.284;2023-04-08T06:13:10;100855.00;;;13.28;71.07
30708;BME280;17458;48.958;8.284;2023-04-08T06:15:54;100858.59;;;13.29;70.36
30708;BME280;17458;48.958;8.284;2023-04-08T06:18:38;100866.53;;;13.27;71.16
30708;BME280;17458;48.958;8.284;2023-04-08T06:21:22;100861.25;;;13.48;71.04
30708;BME280;17458;48.958;8.284;2023-04-08T06:24:05;100861.25;;;13.48;70.38
30708;BME280;17458;48.958;8.284;2023-04-08T06:26:49;100867.00;;;13.38;70.67
30708;BME280;17458;48.958;8.284;2023-04-08T06:29:35;100867.16;;;13.04;71.33
30708;BME280;17458;48.958;8.284;2023-04-08T06:32:20;100865.59;;;13.09;72.28
30708;BME280;17458;48.958;8.284;2023-04-08T06:35:05;100860.19;;;13.07;72.18
30708;BME280;17458;48.958;8.284;2023-04-08T06:37:49;100871.28;;;13.34;70.81
30708;BME280;17458;48.958;8.284;2023-04-08T06:40:34;100870.34;;;13.71;70.05
30708;BME280;17458;48.958;8.284;2023-04-08T06:43:17;100868.66;;;13.54;69.80
30708;BME280;17458;48.958;8.284;2023-04-08T06:46:02;100874.69;;;13.69;69.97
30708;BME280;17458;48.958;8.284;2023-04-08T06:48:46;100879.69;;;13.61;69.33
30708;BME280;17458;48.958;8.284;2023-04-08T06:51:30;100882.63;;;13.87;68.89
30708;BME280;17458;48.958;8.284;2023-04-08T06:54:14;100890.47;;;13.83;69.38
30708;BME280;17458;48.958;8.284;2023-04-08T06:56:58;100887.53;;;13.77;69.36
30708;BME280;17458;48.958;8.284;2023-04-08T06:59:42;100887.19;;;13.89;69.37
30708;BME280;17458;48.958;8.284;2023-04-08T07:02:26;100885.84;;;13.99;68.70
30708;BME280;17458;48.958;8.284;2023-04-08T07:05:10;100893.41;;;13.90;69.04
30708;BME280;17458;48.958;8.284;2023-04-08T07:07:54;100884.16;;;14.22;67.26
30708;BME280;17458;48.958;8.284;2023-04-08T07:10:39;100890.34;;;14.00;66.70
30708;BME280;17458;48.958;8.284;2023-04-08T07:13:23;100894.41;;;13.53;68.49
30708;BME280;17458;48.958;8.284;2023-04-08T07:16:07;100900.59;;;13.33;65.12
30708;BME280;17458;48.958;8.284;2023-04-08T07:18:51;100899.28;;;13.25;65.81
30708;BME280;17458;48.958;8.284;2023-04-08T07:21:35;100902.28;;;13.89;65.96
30708;BME280;17458;48.958;8.284;2023-04-08T07:24:19;100900.75;;;13.74;65.60
30708;BME280;17458;48.958;8.284;2023-04-08T07:27:03;100900.78;;;14.14;63.74
30708;BME280;17458;48.958;8.284;2023-04-08T07:29:51;100905.34;;;13.40;64.06
30708;BME280;17458;48.958;8.284;2023-04-08T07:32:36;100905.97;;;13.34;64.81
30708;BME280;17458;48.958;8.284;2023-04-08T07:35:20;100904.59;;;13.81;64.09
30708;BME280;17458;48.958;8.284;2023-04-08T07:38:07;100906.31;;;13.60;63.86
30708;BME280;17458;48.958;8.284;2023-04-08T07:40:54;100905.53;;;14.22;63.13
30708;BME280;17458;48.958;8.284;2023-04-08T07:43:39;100903.97;;;14.46;62.17
30708;BME280;17458;48.958;8.284;2023-04-08T07:46:23;100917.06;;;14.20;62.38
30708;BME280;17458;48.958;8.284;2023-04-08T07:49:08;100908.97;;;13.98;62.42
30708;BME280;17458;48.958;8.284;2023-04-08T07:51:52;100918.50;;;14.52;63.24
30708;BME280;17458;48.958;8.284;2023-04-08T07:54:36;100918.88;;;14.01;61.35
30708;BME280;17458;48.958;8.284;2023-04-08T07:57:20;100920.69;;;14.02;61.49
30708;BME280;17458;48.958;8.284;2023-04-08T08:00:04;100919.16;;;14.47;61.61
30708;BME280;17458;48.958;8.284;2023-04-08T08:02:57;100932.72;;;13.73;61.50
30708;BME280;17458;48.958;8.284;2023-04-08T08:05:41;100927.44;;;13.74;61.61
30708;BME280;17458;48.958;8.284;2023-04-08T08:08:25;100922.50;;;13.64;61.67
30708;BME280;17458;48.958;8.284;2023-04-08T08:11:09;100932.13;;;13.80;61.30
30708;BME280;17458;48.958;8.284;2023-04-08T08:13:53;100934.38;;;14.29;59.75
30708;BME280;17458;48.958;8.284;2023-04-08T08:16:38;100928.94;;;14.67;58.56
30708;BME280;17458;48.958;8.284;2023-04-08T08:19:22;100930.25;;;14.37;58.16
30708;BME280;17458;48.958;8.284;2023-04-08T08:22:06;100940.94;;;14.56;59.13
30708;BME280;17458;48.958;8.284;2023-04-08T08:24:57;100932.00;;;14.76;56.59
30708;BME280;17458;48.958;8.284;2023-04-08T08:27:42;100940.56;;;14.28;59.30
30708;BME280;17458;48.958;8.284;2023-04-08T08:30:27;100941.38;;;15.31;56.50
30708;BME280;17458;48.958;8.284;2023-04-08T08:33:11;100939.19;;;15.20;56.49
30708;BME280;17458;48.958;8.284;2023-04-08T08:35:55;100947.19;;;14.16;57.59
30708;BME280;17458;48.958;8.284;2023-04-08T08:38:41;100924.84;;;14.54;58.12
30708;BME280;17458;48.958;8.284;2023-04-08T08:41:25;100956.97;;;14.37;58.87
30708;BME280;17458;48.958;8.284;2023-04-08T08:44:09;100950.03;;;14.21;57.79
30708;BME280;17458;48.958;8.284;2023-04-08T08:46:53;100953.56;;;14.20;58.29
30708;BME280;17458;48.958;8.284;2023-04-08T08:49:37;100943.28;;;14.90;58.20
30708;BME280;17458;48.958;8.284;2023-04-08T08:52:21;100950.66;;;14.35;57.12
30708;BME280;17458;48.958;8.284;2023-04-08T08:55:05;100950.38;;;14.89;56.35
30708;BME280;17458;48.958;8.284;2023-04-08T08:57:50;100945.50;;;14.79;55.75
30708;BME280;17458;48.958;8.284;2023-04-08T09:00:39;100950.59;;;14.94;56.36
30708;BME280;17458;48.958;8.284;2023-04-08T09:03:26;100951.88;;;14.62;55.05
30708;BME280;17458;48.958;8.284;2023-04-08T09:06:11;100947.69;;;14.48;56.41
30708;BME280;17458;48.958;8.284;2023-04-08T09:08:55;100957.59;;;14.70;55.69
30708;BME280;17458;48.958;8.284;2023-04-08T09:11:41;100955.63;;;15.30;54.54
30708;BME280;17458;48.958;8.284;2023-04-08T09:14:25;100961.31;;;15.59;54.39
30708;BME280;17458;48.958;8.284;2023-04-08T09:17:09;100962.19;;;14.95;55.58
30708;BME280;17458;48.958;8.284;2023-04-08T09:20:10;100966.34;;;15.09;55.47
30708;BME280;17458;48.958;8.284;2023-04-08T09:22:59;100956.00;;;14.96;54.35
30708;BME280;17458;48.958;8.284;2023-04-08T09:25:43;100962.19;;;15.38;53.48
30708;BME280;17458;48.958;8.284;2023-04-08T09:28:35;100957.41;;;15.08;53.24
30708;BME280;17458;48.958;8.284;2023-04-08T09:31:30;100954.09;;;15.14;53.41
30708;BME280;17458;48.958;8.284;2023-04-08T09:34:16;100954.69;;;15.07;53.40
30708;BME280;17458;48.958;8.284;2023-04-08T09:37:04;100949.69;;;15.59;52.17
30708;BME280;17458;48.958;8.284;2023-04-08T09:39:49;100956.63;;;15.76;51.11
30708;BME280;17458;48.958;8.284;2023-04-08T09:42:36;100959.06;;;15.70;51.38
30708;BME280;17458;48.958;8.284;2023-04-08T09:45:24;100960.84;;;15.93;51.20
30708;BME280;17458;48.958;8.284;2023-04-08T09:48:12;100953.34;;;16.07;52.14
30708;BME280;17458;48.958;8.284;2023-04-08T09:50:59;100949.97;;;15.44;51.91
30708;BME280;17458;48.958;8.284;2023-04-08T09:53:47;100953.41;;;16.09;51.59
30708;BME280;17458;48.958;8.284;2023-04-08T09:56:40;100953.91;;;15.99;51.04
30708;BME280;17458;48.958;8.284;2023-04-08T09:59:26;100951.75;;;16.12;50.43
30708;BME280;17458;48.958;8.284;2023-04-08T10:02:16;100953.91;;;16.72;50.79
30708;BME280;17458;48.958;8.284;2023-04-08T10:05:03;100954.97;;;17.02;47.73
30708;BME280;17458;48.958;8.284;2023-04-08T10:07:49;100960.84;;;16.65;48.87
30708;BME280;17458;48.958;8.284;2023-04-08T10:10:35;100967.59;;;16.79;47.78
30708;BME280;17458;48.958;8.284;2023-04-08T10:13:21;100964.31;;;16.15;48.70
30708;BME280;17458;48.958;8.284;2023-04-08T10:16:23;100958.97;;;16.62;47.82
30708;BME280;17458;48.958;8.284;2023-04-08T10:19:37;100967.31;;;16.22;48.31
30708;BME280;17458;48.958;8.284;2023-04-08T10:31:20;100958.44;;;16.49;47.62
30708;BME280;17458;48.958;8.284;2023-04-08T10:34:21;100959.59;;;16.55;48.44
30708;BME280;17458;48.958;8.284;2023-04-08T10:37:07;100960.56;;;16.34;47.48
30708;BME280;17458;48.958;8.284;2023-04-08T10:39:53;100957.50;;;16.23;46.68
30708;BME280;17458;48.958;8.284;2023-04-08T10:42:37;100959.28;;;16.22;47.46
30708;BME280;17458;48.958;8.284;2023-04-08T10:45:21;100958.53;;;16.26;45.84
30708;BME280;17458;48.958;8.284;2023-04-08T10:48:22;100955.03;;;16.29;41.23
30708;BME280;17458;48.958;8.284;2023-04-08T10:51:12;100955.31;;;16.37;41.88
30708;BME280;17458;48.958;8.284;2023-04-08T10:54:04;100954.31;;;16.82;40.75
30708;BME280;17458;48.958;8.284;2023-04-08T10:56:50;100939.81;;;17.04;41.45
30708;BME280;17458;48.958;8.284;2023-04-08T10:59:35;100950.94;;;16.89;42.31
30708;BME280;17458;48.958;8.284;2023-04-08T11:02:19;100947.41;;;17.17;42.29
30708;BME280;17458;48.958;8.284;2023-04-08T11:05:04;100947.91;;;16.79;42.92
30708;BME280;17458;48.958;8.284;2023-04-08T11:07:48;100944.91;;;17.50;41.91
30708;BME280;17458;48.958;8.284;2023-04-08T11:10:37;100949.06;;;17.12;40.47
30708;BME280;17458;48.958;8.284;2023-04-08T11:13:21;100946.50;;;17.17;39.92
30708;BME280;17458;48.958;8.284;2023-04-08T11:16:07;100935.59;;;16.84;40.27
30708;BME280;17458;48.958;8.284;2023-04-08T11:18:52;100941.56;;;16.77;39.50
30708;BME280;17458;48.958;8.284;2023-04-08T11:21:37;100947.47;;;16.43;39.94
30708;BME280;17458;48.958;8.284;2023-04-08T11:24:22;100931.91;;;16.07;40.72
30708;BME280;17458;48.958;8.284;2023-04-08T11:27:06;100942.28;;;16.47;40.83
30708;BME280;17458;48.958;8.284;2023-04-08T11:29:52;100944.34;;;16.54;42.72
30708;BME280;17458;48.958;8.284;2023-04-08T11:32:39;100932.50;;;15.76;44.39
30708;BME280;17458;48.958;8.284;2023-04-08T11:35:27;100937.06;;;15.55;42.69
30708;BME280;17458;48.958;8.284;2023-04-08T11:38:12;100940.94;;;15.63;43.29
30708;BME280;17458;48.958;8.284;2023-04-08T11:40:58;100940.31;;;15.25;44.79
30708;BME280;17458;48.958;8.284;2023-04-08T11:43:52;100936.22;;;15.35;44.31
30708;BME280;17458;48.958;8.284;2023-04-08T11:46:36;100944.19;;;15.34;43.72
30708;BME280;17458;48.958;8.284;2023-04-08T11:49:23;100942.94;;;16.16;43.48
30708;BME280;17458;48.958;8.284;2023-04-08T11:52:07;100936.09;;;16.01;43.14
30708;BME280;17458;48.958;8.284;2023-04-08T11:54:54;100939.31;;;15.90;44.04
30708;BME280;17458;48.958;8.284;2023-04-08T11:57:38;100924.59;;;15.79;44.65
30708;BME280;17458;48.958;8.284;2023-04-08T12:00:23;100931.22;;;15.44;42.70
30708;BME280;17458;48.958;8.284;2023-04-08T12:03:07;100934.72;;;15.42;42.83
30708;BME280;17458;48.958;8.284;2023-04-08T12:05:51;100932.22;;;15.69;42.91
30708;BME280;17458;48.958;8.284;2023-04-08T12:08:37;100936.34;;;15.38;42.32
30708;BME280;17458;48.958;8.284;2023-04-08T12:11:22;100932.25;;;15.48;43.54
30708;BME280;17458;48.958;8.284;2023-04-08T12:14:06;100925.41;;;15.54;43.52
30708;BME280;17458;48.958;8.284;2023-04-08T12:16:50;100930.56;;;15.50;43.98
30708;BME280;17458;48.958;8.284;2023-04-08T12:19:35;100940.34;;;15.70;43.19
30708;BME280;17458;48.958;8.284;2023-04-08T12:22:19;100930.75;;;16.01;42.89
30708;BME280;17458;48.958;8.284;2023-04-08T12:25:04;100931.63;;;16.00;42.65
30708;BME280;17458;48.958;8.284;2023-04-08T12:27:49;100938.50;;;15.93;42.17
30708;BME280;17458;48.958;8.284;2023-04-08T12:30:33;100943.59;;;15.85;42.51
30708;BME280;17458;48.958;8.284;2023-04-08T12:33:16;100950.19;;;15.71;41.86
30708;BME280;17458;48.958;8.284;2023-04-08T12:36:00;100930.81;;;15.78;42.68
30708;BME280;17458;48.958;8.284;2023-04-08T12:38:44;100946.94;;;16.04;43.38
30708;BME280;17458;48.958;8.284;2023-04-08T12:41:28;100938.56;;;15.94;42.04
30708;BME280;17458;48.958;8.284;2023-04-08T12:44:12;100939.47;;;16.19;40.58
30708;BME280;17458;48.958;8.284;2023-04-08T12:46:57;100942.50;;;16.28;42.23
30708;BME280;17458;48.958;8.284;2023-04-08T12:49:41;100938.97;;;16.05;41.56
30708;BME280;17458;48.958;8.284;2023-04-08T12:52:25;100940.53;;;15.99;41.89
30708;BME280;17458;48.958;8.284;2023-04-08T12:55:09;100939.66;;;16.00;41.73
30708;BME280;17458;48.958;8.284;2023-04-08T12:57:54;100953.81;;;15.51;41.68
30708;BME280;17458;48.958;8.284;2023-04-08T13:00:38;100940.72;;;15.36;42.85
30708;BME280;17458;48.958;8.284;2023-04-08T13:03:23;100941.91;;;15.43;42.52
30708;BME280;17458;48.958;8.284;2023-04-08T13:06:06;100946.53;;;15.69;41.50
30708;BME280;17458;48.958;8.284;2023-04-08T13:08:50;100939.88;;;15.82;41.94
30708;BME280;17458;48.958;8.284;2023-04-08T13:11:35;100943.41;;;16.28;41.59
30708;BME280;17458;48.958;8.284;2023-04-08T13:14:19;100942.19;;;16.44;41.58
30708;BME280;17458;48.958;8.284;2023-04-08T13:17:04;100943.13;;;16.21;41.18
30708;BME280;17458;48.958;8.284;2023-04-08T13:19:48;100940.94;;;16.35;41.11
30708;BME280;17458;48.958;8.284;2023-04-08T13:22:33;100938.41;;;16.63;40.39
30708;BME280;17458;48.958;8.284;2023-04-08T13:25:17;100937.28;;;16.33;40.64
30708;BME280;17458;48.958;8.284;2023-04-08T13:28:01;100936.38;;;16.57;41.07
30708;BME280;17458;48.958;8.284;2023-04-08T13:30:45;100930.59;;;15.96;40.25
30708;BME280;17458;48.958;8.284;2023-04-08T13:33:30;100946.53;;;16.17;40.46
30708;BME280;17458;48.958;8.284;2023-04-08T13:36:14;100938.13;;;15.82;40.42
30708;BME280;17458;48.958;8.284;2023-04-08T13:38:58;100936.69;;;15.92;40.37
30708;BME280;17458;48.958;8.284;2023-04-08T13:41:42;100929.22;;;15.83;39.48
30708;BME280;17458;48.958;8.284;2023-04-08T13:44:26;100938.38;;;15.90;40.46
30708;BME280;17458;48.958;8.284;2023-04-08T13:47:10;100939.88;;;16.06;40.32
30708;BME280;17458;48.958;8.284;2023-04-08T13:49:54;100940.72;;;16.05;39.54
30708;BME280;17458;48.958;8.284;2023-04-08T13:52:39;100941.59;;;15.80;39.68
30708;BME280;17458;48.958;8.284;2023-04-08T13:55:23;100919.19;;;16.02;39.75
30708;BME280;17458;48.958;8.284;2023-04-08T13:58:08;100931.50;;;16.46;38.36
30708;BME280;17458;48.958;8.284;2023-04-08T14:00:52;100932.13;;;15.89;38.75
30708;BME280;17458;48.958;8.284;2023-04-08T14:03:36;100931.50;;;15.97;40.34
30708;BME280;17458;48.958;8.284;2023-04-08T14:06:20;100933.44;;;15.77;40.19
30708;BME280;17458;48.958;8.284;2023-04-08T14:09:04;100927.22;;;15.78;41.57
30708;BME280;17458;48.958;8.284;2023-04-08T14:11:48;100939.06;;;15.17;42.34
30708;BME280;17458;48.958;8.284;2023-04-08T14:14:32;100934.38;;;15.12;42.27
30708;BME280;17458;48.958;8.284;2023-04-08T14:17:16;100926.69;;;15.42;41.55
30708;BME280;17458;48.958;8.284;2023-04-08T14:20:01;100937.56;;;15.46;42.38
30708;BME280;17458;48.958;8.284;2023-04-08T14:22:45;100932.94;;;15.20;42.93
30708;BME280;17458;48.958;8.284;2023-04-08T14:25:29;100908.81;;;15.41;43.39
30708;BME280;17458;48.958;8.284;2023-04-08T14:28:14;100922.19;;;15.63;43.52
30708;BME280;17458;48.958;8.284;2023-04-08T14:30:58;100920.22;;;15.81;43.24
30708;BME280;17458;48.958;8.284;2023-04-08T14:33:42;100915.78;;;15.59;43.42
30708;BME280;17458;48.958;8.284;2023-04-08T14:36:26;100927.72;;;15.68;43.60
30708;BME280;17458;48.958;8.284;2023-04-08T14:39:11;100924.06;;;15.66;44.40